Time;durP1;ratioP1;P1;durP2;ratioP2;P2;SDS_P1;SDS_P2;PMS_P1;PMS_P2;Temp;Humidity;BMP_temperature;BMP_pressure;BME280_temperature;BME280_humidity;BME280_pressure;Samples;Min_cycle;Max_cycle;Signal;HPM_P1;HPM_P2
2021/04/13 00:02:16;;;;;;;1.10;0.50;;;;;;;17.48;52.63;103197.00;6312148;22;20012;-77
2021/04/13 00:04:42;;;;;;;1.05;0.40;;;;;;;17.47;52.79;103199.53;6297905;22;19999;-77
2021/04/13 00:07:08;;;;;;;1.52;0.47;;;;;;;17.48;52.75;103193.47;6272257;22;19998;-77
2021/04/13 00:09:35;;;;;;;0.55;0.40;;;;;;;17.48;52.99;103202.19;6272216;22;20038;-77
2021/04/13 00:12:02;;;;;;;0.68;0.30;;;;;;;17.49;52.74;103208.28;6306282;22;20019;-77
2021/04/13 00:14:33;;;;;;;1.20;0.43;;;;;;;17.47;52.87;103204.75;6335047;22;20007;-77
2021/04/13 00:17:03;;;;;;;0.60;0.40;;;;;;;17.48;52.81;103207.41;6334128;22;20007;-77
2021/04/13 00:19:46;;;;;;;1.00;0.40;;;;;;;17.50;52.81;103204.81;6336101;22;20002;-78
2021/04/13 00:22:13;;;;;;;1.13;0.60;;;;;;;17.48;52.80;103202.19;6363247;22;20006;-76
2021/04/13 00:24:41;;;;;;;1.80;0.52;;;;;;;17.48;52.66;103199.59;6310990;22;20007;-77
2021/04/13 00:27:21;;;;;;;1.50;0.60;;;;;;;17.46;52.89;103202.97;6335874;22;20003;-77
2021/04/13 00:29:49;;;;;;;1.30;0.50;;;;;;;17.45;52.98;103203.81;6363400;22;19995;-77
2021/04/13 00:32:21;;;;;;;2.85;0.40;;;;;;;17.45;52.76;103211.63;6348067;22;20014;-77
2021/04/13 00:34:58;;;;;;;0.98;0.45;;;;;;;17.47;53.00;103207.34;6326625;22;19999;-77
2021/04/13 00:37:28;;;;;;;0.90;0.40;;;;;;;17.47;52.48;103209.97;6303979;22;20006;-77
2021/04/13 00:39:55;;;;;;;1.02;0.50;;;;;;;17.44;52.74;103210.75;6360274;22;19999;-77
2021/04/13 00:42:31;;;;;;;1.58;0.50;;;;;;;17.43;52.47;103203.78;6327952;22;20003;-77
2021/04/13 00:45:10;;;;;;;1.00;0.50;;;;;;;17.45;52.43;103206.44;6331482;22;19999;-77
2021/04/13 00:47:37;;;;;;;1.27;0.60;;;;;;;17.46;52.66;103205.56;6358800;22;20002;-77
2021/04/13 00:50:28;;;;;;;1.58;0.47;;;;;;;17.44;52.88;103209.84;6332646;22;20026;-77
2021/04/13 00:52:56;;;;;;;2.00;0.50;;;;;;;17.46;52.42;103209.09;6329997;22;20003;-77
2021/04/13 00:55:30;;;;;;;1.65;0.50;;;;;;;17.43;52.81;103202.91;6334130;22;20024;-77
2021/04/13 00:58:33;;;;;;;1.75;0.60;;;;;;;17.43;52.53;103211.56;6333797;22;19987;-78
2021/04/13 01:01:05;;;;;;;1.60;0.40;;;;;;;17.42;52.72;103207.22;6334613;22;19999;-77
2021/04/13 01:03:34;;;;;;;10.20;2.25;;;;;;;17.40;52.57;103208.03;6335678;22;20002;-77
2021/04/13 01:06:01;;;;;;;0.98;0.50;;;;;;;17.40;52.43;103208.91;6335024;22;20089;-77
2021/04/13 01:08:34;;;;;;;1.58;0.50;;;;;;;17.41;52.47;103205.44;6336301;22;20003;-77
2021/04/13 01:11:23;;;;;;;1.33;0.55;;;;;;;17.41;52.54;103207.16;6335868;22;20032;-77
2021/04/13 01:13:53;;;;;;;0.82;0.50;;;;;;;17.42;52.49;103209.81;6339013;22;20002;-78
2021/04/13 01:16:24;;;;;;;0.85;0.40;;;;;;;17.41;52.48;103214.97;6339851;22;20006;-77
2021/04/13 01:19:02;;;;;;;1.25;0.40;;;;;;;17.39;52.47;103212.31;6336251;22;19991;-77
2021/04/13 01:21:45;;;;;;;1.38;0.50;;;;;;;17.39;52.58;103206.25;6341822;22;19998;-77
2021/04/13 01:24:25;;;;;;;1.33;0.60;;;;;;;17.39;52.20;103211.44;6367226;22;20024;-77
2021/04/13 01:26:53;;;;;;;1.25;0.50;;;;;;;17.38;52.50;103210.56;6337469;22;20006;-77
2021/04/13 01:29:22;;;;;;;1.48;0.50;;;;;;;17.37;52.50;103208.78;6336511;22;20070;-77
2021/04/13 01:31:54;;;;;;;0.80;0.50;;;;;;;17.37;52.43;103214.00;6335937;22;20018;-77
2021/04/13 01:34:29;;;;;;;1.08;0.40;;;;;;;17.38;52.48;103214.91;6335952;22;20014;-77
2021/04/13 01:37:32;;;;;;;0.73;0.40;;;;;;;17.36;52.44;103212.25;6357222;22;19999;-78
2021/04/13 01:42:39;;;;;;;1.25;0.40;;;;;;;17.37;52.48;103210.53;6359773;22;20086;-77
2021/04/13 01:45:15;;;;;;;0.98;0.40;;;;;;;17.36;52.57;103208.78;6333898;22;20010;-77
2021/04/13 01:47:42;;;;;;;0.90;0.40;;;;;;;17.37;52.30;103207.91;6332322;22;19998;-77
2021/04/13 01:50:19;;;;;;;0.73;0.40;;;;;;;17.36;52.51;103212.25;6328040;22;20025;-78
2021/04/13 01:52:48;;;;;;;0.90;0.40;;;;;;;17.32;52.48;103207.78;6359451;22;20076;-77
2021/04/13 01:55:19;;;;;;;0.60;0.43;;;;;;;17.35;52.31;103210.47;6356838;22;20011;-77
2021/04/13 01:57:56;;;;;;;1.33;0.50;;;;;;;17.34;52.45;103208.72;6355208;22;20099;-77
2021/04/13 02:00:59;;;;;;;1.20;0.50;;;;;;;17.34;52.37;103213.03;6353844;22;20020;-77
2021/04/13 02:04:10;;;;;;;0.30;0.30;;;;;;;17.34;52.40;103219.13;6334461;22;20010;-76
2021/04/13 02:06:41;;;;;;;1.70;0.40;;;;;;;17.32;52.38;103225.13;6321613;22;20014;-77
2021/04/13 02:09:29;;;;;;;1.13;0.50;;;;;;;17.31;52.42;103232.06;6327523;22;19999;-77
2021/04/13 02:12:00;;;;;;;1.20;0.45;;;;;;;17.32;52.24;103222.53;6305467;22;20014;-77
2021/04/13 02:14:53;;;;;;;0.60;0.40;;;;;;;17.33;52.34;103226.88;6326928;22;20023;-77
2021/04/13 02:17:27;;;;;;;0.80;0.45;;;;;;;17.30;52.49;103240.69;6320114;22;20007;-78
2021/04/13 02:20:00;;;;;;;0.73;0.32;;;;;;;17.28;52.38;103226.75;6332971;22;20038;-77
2021/04/13 02:22:29;;;;;;;0.93;0.40;;;;;;;17.31;52.42;103233.75;6332879;22;20007;-77
2021/04/13 02:25:01;;;;;;;0.43;0.30;;;;;;;17.31;52.49;103241.56;6332035;22;20019;-77
2021/04/13 02:27:30;;;;;;;0.82;0.32;;;;;;;17.28;52.63;103237.16;6329578;22;20330;-76
2021/04/13 02:30:09;;;;;;;2.42;0.60;;;;;;;17.28;52.32;103238.03;6330503;22;20003;-77
2021/04/13 02:32:41;;;;;;;0.82;0.40;;;;;;;17.28;52.42;103239.75;6330945;22;19999;-77
2021/04/13 02:35:17;;;;;;;1.05;0.40;;;;;;;17.29;52.15;103241.53;6330124;22;20003;-77
2021/04/13 02:37:49;;;;;;;0.75;0.50;;;;;;;17.26;52.13;103242.31;6326739;22;19999;-78
2021/04/13 02:41:04;;;;;;;0.68;0.40;;;;;;;17.27;52.16;103244.09;6321907;22;20003;-77
2021/04/13 02:43:44;;;;;;;0.95;0.40;;;;;;;17.26;52.08;103242.31;6328383;22;19996;-77
2021/04/13 02:46:15;;;;;;;0.98;0.45;;;;;;;17.26;52.37;103246.63;6332759;22;20003;-77
2021/04/13 02:48:49;;;;;;;1.13;0.50;;;;;;;17.27;52.44;103251.91;6327700;22;19999;-77
2021/04/13 02:51:16;;;;;;;0.85;0.30;;;;;;;17.30;52.17;103251.09;6329553;22;20368;-77
2021/04/13 02:53:55;;;;;;;0.60;0.40;;;;;;;17.27;52.20;103246.69;6329459;22;20003;-78
2021/04/13 02:56:27;;;;;;;1.10;0.50;;;;;;;17.24;52.25;103243.97;6330642;22;20029;-77
2021/04/13 02:59:04;;;;;;;1.25;0.52;;;;;;;17.26;52.29;103244.03;6328294;22;20031;-77
2021/04/13 03:01:32;;;;;;;0.90;0.40;;;;;;;17.27;52.27;103253.63;6329836;22;20023;-77
2021/04/13 03:04:03;;;;;;;0.88;0.40;;;;;;;17.30;51.97;103247.63;6329842;22;20006;-78
2021/04/13 03:06:29;;;;;;;1.10;0.38;;;;;;;17.25;52.27;103245.75;6330129;22;19999;-77
2021/04/13 03:08:55;;;;;;;0.35;0.28;;;;;;;17.25;52.22;103247.50;6329766;22;20028;-77
2021/04/13 03:11:25;;;;;;;1.00;0.30;;;;;;;17.23;52.27;103244.81;6330643;22;20003;-77
2021/04/13 03:13:53;;;;;;;1.27;0.50;;;;;;;17.22;52.25;103248.28;6329335;22;20046;-78
2021/04/13 03:16:29;;;;;;;0.63;0.30;;;;;;;17.21;52.31;103243.91;6329845;22;20003;-78
2021/04/13 03:18:58;;;;;;;0.55;0.30;;;;;;;17.21;52.19;103237.81;6331783;22;20015;-77
2021/04/13 03:21:28;;;;;;;0.93;0.40;;;;;;;17.22;52.08;103244.78;6332709;22;20006;-77
2021/04/13 03:23:57;;;;;;;0.88;0.43;;;;;;;17.25;51.96;103250.09;6322569;22;20006;-77
2021/04/13 03:26:30;;;;;;;1.05;0.40;;;;;;;17.22;52.08;103242.16;6328215;22;20034;-77
2021/04/13 03:29:03;;;;;;;0.52;0.30;;;;;;;17.19;52.18;103237.75;6328634;22;20000;-77
2021/04/13 03:31:32;;;;;;;1.15;0.38;;;;;;;17.20;52.16;103241.25;6327373;22;20339;-77
2021/04/13 03:34:03;;;;;;;1.13;0.30;;;;;;;17.20;52.27;103243.84;6324677;22;20007;-77
2021/04/13 03:36:30;;;;;;;2.75;0.50;;;;;;;17.21;51.82;103232.63;6323883;22;20011;-78
2021/04/13 03:39:00;;;;;;;0.98;0.30;;;;;;;17.20;52.21;103238.63;6320944;22;19983;-77
2021/04/13 03:41:26;;;;;;;0.75;0.40;;;;;;;17.19;52.05;103240.38;6325744;22;20000;-77
2021/04/13 03:43:58;;;;;;;1.38;0.50;;;;;;;17.19;52.19;103239.50;6300455;22;20007;-78
2021/04/13 03:46:25;;;;;;;1.27;0.40;;;;;;;17.16;52.06;103239.38;6327776;22;20007;-77
2021/04/13 03:48:54;;;;;;;1.17;0.40;;;;;;;17.20;52.13;103249.03;6328252;22;20057;-77
2021/04/13 03:51:35;;;;;;;0.75;0.30;;;;;;;17.18;52.19;103245.50;6323976;22;20027;-77
2021/04/13 03:54:19;;;;;;;1.08;0.40;;;;;;;17.19;51.86;103250.78;6323323;22;20004;-77
2021/04/13 03:56:44;;;;;;;1.38;0.40;;;;;;;17.17;52.20;103248.97;6324906;22;20007;-77
2021/04/13 03:59:17;;;;;;;0.70;0.30;;;;;;;17.16;51.97;103245.50;6324260;22;20029;-77
2021/04/13 04:01:42;;;;;;;0.85;0.30;;;;;;;17.16;52.11;103242.88;6324426;22;20052;-77
2021/04/13 04:04:21;;;;;;;0.70;0.40;;;;;;;17.17;51.97;103256.78;6294674;22;20012;-76
2021/04/13 04:06:56;;;;;;;0.32;0.20;;;;;;;17.17;51.43;103255.03;6320133;22;20014;-77
2021/04/13 04:09:35;;;;;;;1.23;0.20;;;;;;;17.17;52.10;103252.44;6316499;22;20014;-77
2021/04/13 04:12:14;;;;;;;1.02;0.40;;;;;;;17.16;51.91;103248.09;6314420;22;20003;-77
2021/04/13 04:14:39;;;;;;;1.23;0.38;;;;;;;17.16;51.97;103252.38;6315422;22;19995;-77
2021/04/13 04:17:14;;;;;;;0.70;0.30;;;;;;;17.16;52.07;103255.00;6312054;22;20443;-77
2021/04/13 04:19:41;;;;;;;0.90;0.40;;;;;;;17.15;52.32;103256.72;6314360;22;19999;-77
2021/04/13 04:22:14;;;;;;;1.67;0.50;;;;;;;17.15;51.87;103255.84;6313876;22;19999;-77
2021/04/13 04:24:43;;;;;;;0.85;0.50;;;;;;;17.13;52.00;103258.38;6315637;22;20019;-77
2021/04/13 04:27:15;;;;;;;1.08;0.40;;;;;;;17.13;52.11;103260.13;6314841;22;19999;-77
2021/04/13 04:29:49;;;;;;;0.55;0.30;;;;;;;17.13;51.99;103263.59;6316242;22;20030;-77
2021/04/13 04:32:40;;;;;;;1.17;0.40;;;;;;;17.14;52.09;103269.69;6315211;22;20007;-76
2021/04/13 04:35:09;;;;;;;1.35;0.32;;;;;;;17.12;51.77;103268.78;6315734;22;19999;-77
2021/04/13 04:38:17;;;;;;;0.80;0.32;;;;;;;17.13;51.97;103271.41;6314330;22;20045;-77
2021/04/13 04:40:48;;;;;;;1.38;0.40;;;;;;;17.16;52.20;103278.41;6306086;22;20090;-77
2021/04/13 04:43:17;;;;;;;0.82;0.32;;;;;;;17.17;52.02;103270.66;6310557;22;20006;-77
2021/04/13 04:45:42;;;;;;;0.70;0.40;;;;;;;17.18;52.10;103269.84;6312502;22;20316;-77
2021/04/13 04:48:35;;;;;;;0.50;0.35;;;;;;;17.18;52.33;103274.13;6312915;22;20025;-77
2021/04/13 04:51:09;;;;;;;0.57;0.30;;;;;;;17.21;52.01;103279.44;6325928;22;20015;-77
2021/04/13 04:53:36;;;;;;;1.27;0.47;;;;;;;17.23;51.94;103283.88;6316837;22;20067;-77
2021/04/13 04:56:05;;;;;;;1.27;0.40;;;;;;;17.22;52.00;103279.50;6316973;22;20018;-77
2021/04/13 04:58:31;;;;;;;2.28;0.40;;;;;;;17.26;52.16;103285.66;6315788;22;20134;-77
2021/04/13 05:00:57;;;;;;;0.80;0.35;;;;;;;17.28;51.98;103287.47;6316516;22;19999;-77
2021/04/13 05:03:24;;;;;;;0.90;0.40;;;;;;;17.32;51.74;103291.06;6289618;22;20017;-77
2021/04/13 05:05:50;;;;;;;0.70;0.40;;;;;;;17.33;52.05;103286.75;6291085;22;20014;-77
2021/04/13 05:08:16;;;;;;;0.75;0.30;;;;;;;17.35;52.03;103292.88;6318369;22;20366;-77
2021/04/13 05:10:44;;;;;;;2.28;0.40;;;;;;;17.34;52.22;103289.41;6316781;22;20325;-77
2021/04/13 05:13:10;;;;;;;3.65;0.60;;;;;;;17.36;52.59;103292.94;6315497;22;20038;-77
2021/04/13 05:15:35;;;;;;;13.07;3.17;;;;;;;17.53;52.31;103290.84;6318947;22;20007;-78
2021/04/13 05:18:01;;;;;;;12.93;4.15;;;;;;;17.64;52.03;103298.97;6302522;22;20047;-77
2021/04/13 05:20:27;;;;;;;8.98;2.70;;;;;;;17.69;51.83;103307.78;6309241;22;20015;-78
2021/04/13 05:22:54;;;;;;;8.65;2.80;;;;;;;17.75;51.66;103304.50;6320625;22;20096;-78
2021/04/13 05:25:20;;;;;;;8.32;2.45;;;;;;;17.77;51.72;103305.41;6292148;22;20490;-78
2021/04/13 05:27:47;;;;;;;7.57;2.15;;;;;;;17.80;51.63;103306.38;6317678;22;20022;-78
2021/04/13 05:30:14;;;;;;;7.88;2.28;;;;;;;17.83;51.38;103310.81;6317919;22;20015;-77
2021/04/13 05:32:40;;;;;;;5.80;1.80;;;;;;;17.83;51.65;103309.13;6329522;22;20017;-77
2021/04/13 05:35:07;;;;;;;6.95;2.13;;;;;;;17.84;51.29;103313.47;6327106;22;20334;-77
2021/04/13 05:37:35;;;;;;;7.40;2.00;;;;;;;17.89;51.64;103317.09;6296664;22;20079;-77
2021/04/13 05:40:03;;;;;;;8.60;2.08;;;;;;;17.96;51.31;103320.75;6320575;22;20052;-78
2021/04/13 05:42:31;;;;;;;5.70;2.10;;;;;;;17.97;51.20;103321.66;6320566;22;19999;-78
2021/04/13 05:44:58;;;;;;;5.25;1.75;;;;;;;18.04;51.27;103331.41;6319819;22;20105;-78
2021/04/13 05:47:47;;;;;;;5.30;1.92;;;;;;;18.26;50.50;103328.53;6322309;22;20007;-78
2021/04/13 05:50:22;;;;;;;4.07;1.63;;;;;;;18.39;50.38;103323.66;6328811;22;19999;-78
2021/04/13 05:52:48;;;;;;;8.45;1.90;;;;;;;18.69;49.56;103328.78;6322818;22;20446;-82
2021/04/13 05:55:14;;;;;;;6.07;1.70;;;;;;;18.96;48.83;103330.34;6317772;22;20007;-80
2021/04/13 05:57:40;;;;;;;7.97;1.90;;;;;;;18.59;49.96;103339.81;6317736;22;19999;-90
2021/04/13 06:00:06;;;;;;;6.00;1.67;;;;;;;18.57;50.25;103341.50;6297214;22;20014;-85
2021/04/13 06:02:34;;;;;;;4.60;1.70;;;;;;;19.24;48.24;103343.22;6317379;22;20013;-82
2021/04/13 06:05:02;;;;;;;5.30;1.60;;;;;;;19.13;48.36;103346.41;6314291;22;20006;-83
2021/04/13 06:07:27;;;;;;;3.15;1.55;;;;;;;19.86;47.01;103353.31;6313129;22;20312;-89
2021/04/13 06:09:53;;;;;;;4.55;1.77;;;;;;;19.14;48.69;103350.78;6313446;22;20060;-82
2021/04/13 06:12:21;;;;;;;7.15;1.85;;;;;;;19.91;46.78;103356.03;6312337;22;20015;-81
2021/04/13 06:14:46;;;;;;;4.90;1.50;;;;;;;19.74;47.04;103350.44;6308884;22;20423;-87
2021/04/13 06:17:11;;;;;;;4.35;1.50;;;;;;;18.98;48.92;103355.63;6285485;22;20058;-82
2021/04/13 06:19:37;;;;;;;3.05;1.42;;;;;;;19.97;46.66;103350.03;6313388;22;19999;-88
2021/04/13 06:22:03;;;;;;;2.92;1.48;;;;;;;19.76;46.64;103359.19;6284856;22;20004;-81
2021/04/13 06:24:29;;;;;;;3.17;1.10;;;;;;;19.29;48.00;103362.50;6308908;22;20007;-84
2021/04/13 06:26:54;;;;;;;2.83;1.52;;;;;;;20.64;44.81;103353.94;6283670;22;20011;-86
2021/04/13 06:29:19;;;;;;;3.63;1.40;;;;;;;19.81;46.76;103357.56;6257546;22;20098;-88
2021/04/13 06:31:45;;;;;;;3.22;1.30;;;;;;;21.41;42.86;103365.69;6284414;22;20338;-82
2021/04/13 06:34:10;;;;;;;2.75;1.30;;;;;;;22.08;41.12;103365.69;6308894;22;20426;-85
2021/04/13 06:36:38;;;;;;;5.35;1.35;;;;;;;22.67;39.77;103351.47;6281052;22;20007;-83
2021/04/13 06:39:04;;;;;;;2.75;1.45;;;;;;;22.63;39.70;103354.06;6312577;22;20034;-82
2021/04/13 06:41:42;;;;;;;2.20;1.15;;;;;;;22.80;39.58;103353.31;6258164;22;20007;-85
2021/04/13 06:44:41;;;;;;;2.40;1.35;;;;;;;22.49;40.18;103361.78;6313074;22;20051;-81
2021/04/13 06:47:29;;;;;;;2.72;1.23;;;;;;;22.55;40.08;103360.09;6311745;22;20004;-81
2021/04/13 06:50:30;;;;;;;2.40;1.30;;;;;;;21.71;41.65;103374.81;6315490;22;20384;-83
2021/04/13 06:52:55;;;;;;;2.17;1.02;;;;;;;22.85;39.43;103366.50;6312196;22;20015;-85
2021/04/13 06:55:38;;;;;;;2.92;1.20;;;;;;;23.54;37.67;103372.25;6319621;22;20000;-90
2021/04/13 06:58:16;;;;;;;2.75;1.10;;;;;;;23.85;37.03;103375.06;6314906;22;20043;-83
2021/04/13 07:00:56;;;;;;;2.25;1.20;;;;;;;22.45;40.06;103378.34;6315238;22;20007;-87
2021/04/13 07:03:49;;;;;;;2.67;1.10;;;;;;;22.59;39.69;103369.75;6314509;22;20322;-91
2021/04/13 07:06:23;;;;;;;2.60;1.05;;;;;;;20.49;44.65;103383.31;6318895;22;20056;-82
2021/04/13 07:08:57;;;;;;;2.85;1.00;;;;;;;19.96;46.30;103387.47;6313769;22;20004;-90
2021/04/13 07:11:29;;;;;;;2.83;1.08;;;;;;;21.12;43.40;103383.53;6316044;22;20434;-91
2021/04/13 07:14:07;;;;;;;2.10;1.20;;;;;;;20.28;45.13;103389.00;6313821;22;20003;-86
2021/04/13 07:16:36;;;;;;;10.57;1.30;;;;;;;19.66;46.91;103399.00;6313991;22;20003;-87
2021/04/13 07:19:13;;;;;;;1.63;0.95;;;;;;;20.12;45.63;103400.91;6314526;22;20055;-88
2021/04/13 07:22:00;;;;;;;2.08;0.90;;;;;;;21.15;43.08;103394.09;6315531;22;20003;-88
2021/04/13 07:24:54;;;;;;;2.80;1.00;;;;;;;21.66;41.92;103393.13;6318839;22;20003;-88
2021/04/13 07:27:51;;;;;;;1.65;0.82;;;;;;;21.44;42.27;103394.56;6319517;22;20043;-83
2021/04/13 07:30:24;;;;;;;1.77;0.88;;;;;;;20.33;44.79;103403.06;6318087;22;20004;-86
2021/04/13 07:32:56;;;;;;;1.92;1.05;;;;;;;19.87;46.25;103407.34;6313931;22;20042;-90
2021/04/13 07:35:26;;;;;;;2.00;1.00;;;;;;;21.26;42.96;103402.97;6316603;22;20352;-86
2021/04/13 07:37:54;;;;;;;1.65;0.88;;;;;;;21.80;41.72;103409.03;6319124;22;20006;-88
2021/04/13 07:40:27;;;;;;;1.75;0.80;;;;;;;21.41;42.07;103389.28;6324746;22;20010;-85
2021/04/13 07:43:03;;;;;;;1.58;0.77;;;;;;;20.12;45.48;103400.91;6328710;22;19999;-90
2021/04/13 07:45:45;;;;;;;1.05;0.60;;;;;;;20.97;42.92;103394.66;6316963;22;20004;-85
2021/04/13 07:48:24;;;;;;;1.52;0.77;;;;;;;20.84;43.28;103400.53;6311877;22;20007;-90
2021/04/13 07:51:02;;;;;;;1.77;0.88;;;;;;;19.75;46.15;103401.88;6312306;22;20026;-87
2021/04/13 07:53:47;;;;;;;1.40;0.80;;;;;;;19.53;46.87;103410.88;6311904;22;20029;-86
2021/04/13 07:56:44;;;;;;;2.33;0.90;;;;;;;22.68;39.34;103391.72;6311238;22;20355;-89
2021/04/13 07:59:33;;;;;;;1.45;0.85;;;;;;;23.54;37.32;103400.25;6309671;22;20006;-78
2021/04/13 08:01:59;;;;;;;1.27;0.80;;;;;;;22.58;39.56;103401.22;6309625;22;20014;-80
2021/04/13 08:04:28;;;;;;;2.45;1.10;;;;;;;23.30;37.67;103396.63;6307987;22;20011;-78
2021/04/13 08:07:11;;;;;;;1.55;0.90;;;;;;;23.42;37.53;103404.56;6311351;22;20078;-81
2021/04/13 08:09:44;;;;;;;1.40;0.80;;;;;;;23.33;37.72;103395.78;6310063;22;20556;-77
2021/04/13 08:12:15;;;;;;;2.15;1.00;;;;;;;23.25;37.82;103402.72;6308181;22;20427;-80
2021/04/13 08:15:03;;;;;;;1.90;0.88;;;;;;;22.30;39.59;103408.81;6310515;22;20007;-81
2021/04/13 08:17:42;;;;;;;2.13;0.90;;;;;;;22.16;40.07;103420.84;6308178;22;20042;-78
2021/04/13 08:20:13;;;;;;;1.65;0.70;;;;;;;20.59;44.21;103413.16;6310484;22;20003;-81
2021/04/13 08:23:00;;;;;;;2.08;0.70;;;;;;;21.86;41.44;103410.84;6309671;22;20006;-78
2021/04/13 08:25:45;;;;;;;1.40;0.80;;;;;;;22.29;40.22;103414.91;6309395;22;20011;-81
2021/04/13 08:28:48;;;;;;;1.65;0.90;;;;;;;22.17;40.52;103420.00;6310145;22;20416;-81
2021/04/13 08:34:25;;;;;;;2.67;0.85;;;;;;;21.64;41.71;103417.53;6307997;22;20014;-79
2021/04/13 08:37:13;;;;;;;1.27;0.70;;;;;;;21.08;43.06;103419.28;6310539;22;20511;-78
2021/04/13 08:39:49;;;;;;;1.73;0.80;;;;;;;20.83;43.72;103417.97;6310296;22;20074;-79
2021/04/13 08:42:22;;;;;;;1.92;0.80;;;;;;;20.60;44.46;103424.50;6309260;22;20003;-78
2021/04/13 08:44:55;;;;;;;1.25;0.70;;;;;;;20.62;44.27;103423.72;6309822;22;20014;-79
2021/04/13 08:47:51;;;;;;;1.77;0.68;;;;;;;20.59;44.60;103433.22;6310483;22;20335;-83
2021/04/13 08:50:34;;;;;;;4.35;0.70;;;;;;;20.47;44.71;103432.09;6301013;22;20104;-80
2021/04/13 08:53:02;;;;;;;1.27;0.65;;;;;;;20.32;45.24;103427.44;6309724;22;20101;-81
2021/04/13 08:55:44;;;;;;;1.50;0.70;;;;;;;20.21;45.51;103430.69;6311520;22;20498;-81
2021/04/13 08:58:12;;;;;;;1.80;0.68;;;;;;;20.07;45.51;103433.03;6310185;22;20007;-85
2021/04/13 09:00:40;;;;;;;1.20;0.60;;;;;;;20.01;45.95;103432.88;6312030;22;20004;-78
2021/04/13 09:03:08;;;;;;;1.05;0.70;;;;;;;19.95;46.27;103438.88;6308504;22;20090;-80
2021/04/13 09:05:38;;;;;;;1.90;0.60;;;;;;;19.89;46.53;103431.78;6309010;22;20419;-78
2021/04/13 09:08:06;;;;;;;1.33;0.60;;;;;;;19.81;46.56;103429.84;6311230;22;20017;-78
2021/04/13 09:10:41;;;;;;;2.35;0.60;;;;;;;19.66;46.87;103431.25;6313391;22;19999;-79
2021/04/13 09:13:21;;;;;;;1.48;0.63;;;;;;;19.59;47.19;103429.31;6311494;22;20003;-77
2021/04/13 09:16:10;;;;;;;1.05;0.60;;;;;;;19.56;47.29;103431.88;6313998;22;20041;-78
2021/04/13 09:18:45;;;;;;;2.47;0.70;;;;;;;19.42;47.51;103434.13;6314067;22;20026;-82
2021/04/13 09:21:29;;;;;;;1.42;0.52;;;;;;;19.32;47.82;103433.03;6312804;22;20047;-78
2021/04/13 09:24:20;;;;;;;3.03;0.55;;;;;;;19.33;47.47;103426.97;6313739;22;20010;-80
2021/04/13 09:26:57;;;;;;;1.50;0.60;;;;;;;19.29;47.75;103435.59;6318504;22;20003;-77
2021/04/13 09:29:38;;;;;;;1.50;0.70;;;;;;;19.21;47.93;103436.25;6321775;22;20007;-76
2021/04/13 09:32:31;;;;;;;1.50;0.70;;;;;;;19.28;47.63;103438.16;6319228;22;20007;-78
2021/04/13 09:35:04;;;;;;;1.20;0.52;;;;;;;19.33;47.44;103426.09;6320706;22;19995;-77
2021/04/13 09:37:41;;;;;;;0.95;0.52;;;;;;;19.36;47.58;103435.72;6318036;22;19999;-77
2021/04/13 09:40:35;;;;;;;1.33;0.60;;;;;;;19.33;47.48;103441.75;6320011;22;20028;-79
2021/04/13 09:43:10;;;;;;;1.15;0.60;;;;;;;19.30;47.57;103436.47;6321550;22;20074;-76
2021/04/13 09:45:43;;;;;;;1.23;0.52;;;;;;;19.19;47.92;103440.53;6320934;22;20003;-77
2021/04/13 09:48:27;;;;;;;;;;;;;;;19.19;47.93;103438.81;6325446;22;20010;-77
2021/04/13 09:51:10;;;;;;;0.85;0.60;;;;;;;19.21;47.56;103442.34;6324415;22;19907;-84
2021/04/13 09:53:53;;;;;;;1.48;0.60;;;;;;;19.21;47.89;103446.69;6325791;22;20042;-79
2021/04/13 09:56:39;;;;;;;1.05;0.40;;;;;;;19.17;47.71;103437.00;6323079;22;20035;-77
2021/04/13 09:59:10;;;;;;;1.20;0.60;;;;;;;19.12;47.75;103429.06;6319672;22;19991;-77
2021/04/13 10:02:17;;;;;;;2.40;0.50;;;;;;;19.10;48.08;103441.19;6325476;22;20434;-77
2021/04/13 10:05:02;;;;;;;1.52;0.52;;;;;;;19.03;48.06;103441.84;6311678;22;20015;-77
2021/04/13 10:07:55;;;;;;;1.52;0.60;;;;;;;19.05;48.03;103432.34;6323853;22;20003;-78
2021/04/13 10:10:34;;;;;;;1.33;0.60;;;;;;;19.01;48.00;103430.50;6325868;22;20055;-78
2021/04/13 10:13:14;;;;;;;0.90;0.60;;;;;;;19.06;47.81;103429.78;6321391;22;20067;-79
2021/04/13 10:15:59;;;;;;;0.80;0.50;;;;;;;19.09;47.81;103432.47;6323291;22;19999;-78
2021/04/13 10:18:24;;;;;;;1.35;0.60;;;;;;;19.06;47.83;103429.78;6321906;22;20007;-78
2021/04/13 10:21:39;;;;;;;1.23;0.60;;;;;;;19.02;48.01;103432.28;6319253;22;20021;-78
2021/04/13 10:24:26;;;;;;;1.17;0.60;;;;;;;18.98;47.97;103433.03;6224546;22;20003;-77
2021/04/13 10:26:57;;;;;;;0.70;0.40;;;;;;;18.92;48.36;103428.53;6314980;22;20019;-78
2021/04/13 10:29:40;;;;;;;1.30;0.50;;;;;;;18.96;48.09;103433.00;6314842;22;20334;-78
2021/04/13 10:32:15;;;;;;;1.70;0.63;;;;;;;18.97;47.96;103420.84;6318811;22;20003;-79
2021/04/13 10:35:15;;;;;;;0.95;0.40;;;;;;;19.01;47.92;103420.97;6319066;22;20015;-78
2021/04/13 10:38:22;;;;;;;1.25;0.60;;;;;;;19.04;47.97;103428.88;6319282;22;20007;-79
2021/04/13 10:41:26;;;;;;;2.25;0.50;;;;;;;19.02;47.97;103425.31;6286479;22;20003;-78
2021/04/13 10:44:10;;;;;;;1.80;0.57;;;;;;;19.03;47.89;103423.59;6318734;22;20030;-78
2021/04/13 10:46:52;;;;;;;0.80;0.50;;;;;;;19.03;47.78;103427.13;6318942;22;20007;-79
2021/04/13 10:50:05;;;;;;;1.13;0.50;;;;;;;18.99;48.21;103417.44;6319308;22;20003;-79
2021/04/13 10:53:08;;;;;;;0.82;0.43;;;;;;;18.95;48.07;103426.03;6319524;22;20023;-79
2021/04/13 10:56:13;;;;;;;1.02;0.43;;;;;;;18.95;47.97;103427.75;6315707;22;20030;-79
2021/04/13 10:59:15;;;;;;;1.23;0.50;;;;;;;18.95;47.95;103430.38;6318199;22;20011;-77
2021/04/13 11:02:01;;;;;;;0.95;0.45;;;;;;;18.98;47.92;103420.00;6314583;22;20003;-79
2021/04/13 11:04:54;;;;;;;0.82;0.40;;;;;;;18.98;47.91;103420.88;6315790;22;19999;-78
2021/04/13 11:07:43;;;;;;;2.05;0.55;;;;;;;18.97;48.06;103429.56;6312833;22;20011;-79
2021/04/13 11:10:27;;;;;;;2.78;0.50;;;;;;;18.95;48.08;103422.53;6267553;22;20003;-79
2021/04/13 11:13:03;;;;;;;2.15;0.70;;;;;;;18.95;48.07;103414.72;6313486;22;19999;-79
2021/04/13 11:15:53;;;;;;;1.48;0.60;;;;;;;18.98;48.01;103420.88;6316666;22;20006;-78
2021/04/13 11:18:53;;;;;;;2.22;0.60;;;;;;;18.96;48.12;103411.25;6313043;22;20454;-79
2021/04/13 11:21:37;;;;;;;1.80;0.65;;;;;;;18.99;48.20;103411.31;6316004;22;20003;-79
2021/04/13 11:24:21;;;;;;;1.75;0.77;;;;;;;18.97;48.26;103426.06;6312525;22;20003;-78
2021/04/13 11:27:05;;;;;;;0.63;0.45;;;;;;;18.96;48.28;103413.84;6322774;22;20476;-79
2021/04/13 11:30:01;;;;;;;1.52;0.77;;;;;;;18.96;48.36;103421.69;6311633;22;20053;-79
2021/04/13 11:32:58;;;;;;;0.98;0.57;;;;;;;18.96;48.32;103414.72;6314605;22;20038;-78
2021/04/13 11:35:37;;;;;;;1.58;0.60;;;;;;;18.96;48.42;103417.34;6296837;22;20007;-77
2021/04/13 11:38:22;;;;;;;0.82;0.60;;;;;;;18.96;48.25;103409.50;6315273;22;20057;-78
2021/04/13 11:41:00;;;;;;;1.23;0.60;;;;;;;19.00;48.09;103413.97;6314338;22;20024;-79
2021/04/13 11:43:27;;;;;;;1.08;0.45;;;;;;;19.03;48.15;103413.16;6315454;22;20050;-78
2021/04/13 11:46:11;;;;;;;1.10;0.60;;;;;;;19.04;48.23;103396.66;6315064;22;20003;-78
2021/04/13 11:48:50;;;;;;;1.30;0.60;;;;;;;19.04;48.28;103400.16;6313025;22;20055;-78
2021/04/13 11:51:30;;;;;;;1.70;0.60;;;;;;;19.01;48.20;103407.00;6313093;22;20063;-79
2021/04/13 11:54:16;;;;;;;1.17;0.47;;;;;;;18.99;48.14;103407.00;6311359;22;20063;-81
2021/04/13 11:57:05;;;;;;;2.22;0.50;;;;;;;18.99;48.14;103401.78;6314979;22;20003;-78
2021/04/13 11:59:31;;;;;;;2.83;0.60;;;;;;;19.02;48.22;103412.28;6303077;22;20019;-79
2021/04/13 12:02:18;;;;;;;1.33;0.50;;;;;;;19.03;48.29;103406.22;6287291;22;20007;-79
2021/04/13 12:04:54;;;;;;;1.17;0.50;;;;;;;19.00;48.15;103408.75;6327522;22;19983;-86
2021/04/13 12:07:56;;;;;;;3.80;0.60;;;;;;;19.00;48.22;103405.25;6331709;22;20009;-78
2021/04/13 12:10:34;;;;;;;1.15;0.50;;;;;;;18.99;48.22;103401.78;6331506;22;19983;-81
2021/04/13 12:13:34;;;;;;;0.60;0.50;;;;;;;18.99;48.37;103399.16;6303750;22;20004;-78
2021/04/13 12:16:06;;;;;;;1.50;0.50;;;;;;;18.99;48.20;103398.25;6332308;22;19999;-79